createdAt,value
2023-04-16T00:03:50.429Z,7.91
2023-04-16T00:08:53.387Z,7.93
2023-04-16T00:13:56.110Z,7.92
2023-04-16T00:19:00.244Z,7.96
2023-04-16T00:24:02.985Z,7.96
2023-04-16T00:29:05.872Z,7.97
2023-04-16T00:34:09.998Z,7.97
2023-04-16T00:39:12.790Z,7.98
2023-04-16T00:44:15.519Z,7.96
2023-04-16T00:49:19.679Z,7.92
2023-04-16T00:54:22.735Z,7.96
2023-04-16T00:59:25.885Z,7.95
2023-04-16T01:04:30.994Z,7.93
2023-04-16T01:09:33.884Z,7.96
2023-04-16T01:14:39.135Z,7.96
2023-04-16T01:19:43.254Z,7.98
2023-04-16T01:24:47.395Z,7.97
2023-04-16T01:29:50.295Z,7.95
2023-04-16T01:34:58.248Z,8.01
2023-04-16T01:40:02.381Z,7.98
2023-04-16T01:45:06.632Z,7.99
2023-04-16T01:50:10.840Z,8.02
2023-04-16T01:55:15.015Z,8.01
2023-04-16T02:00:17.829Z,7.98
2023-04-16T02:05:23.157Z,7.99
2023-04-16T02:10:27.408Z,8.03
2023-04-16T02:15:30.674Z,7.98
2023-04-16T02:20:33.443Z,7.95
2023-04-16T02:25:41.743Z,8.00
2023-04-16T02:30:46.398Z,7.98
2023-04-16T02:35:51.764Z,8.00
2023-04-16T02:40:55.957Z,8.02
2023-04-16T02:45:59.481Z,8.02
2023-04-16T02:51:02.264Z,8.02
2023-04-16T02:56:07.322Z,7.98
2023-04-16T03:01:10.109Z,7.95
2023-04-16T03:06:13.062Z,7.95
2023-04-16T03:11:17.582Z,7.98
2023-04-16T03:16:20.641Z,7.95
2023-04-16T03:21:23.396Z,7.94
2023-04-16T03:26:27.475Z,7.94
2023-04-16T03:31:30.914Z,7.89
2023-04-16T03:36:35.113Z,7.86
2023-04-16T03:41:39.215Z,7.88
2023-04-16T03:46:42.025Z,7.85
2023-04-16T03:51:44.833Z,7.85
2023-04-16T03:56:49.023Z,7.83
2023-04-16T04:01:53.098Z,7.78
2023-04-16T04:06:55.939Z,7.79
2023-04-16T04:12:01.154Z,7.76
2023-04-16T04:17:04.064Z,7.76
2023-04-16T04:22:06.911Z,7.75
2023-04-16T04:27:12.191Z,7.75
2023-04-16T04:32:15.034Z,7.73
2023-04-16T04:37:18.116Z,7.71
2023-04-16T04:42:22.708Z,7.74
2023-04-16T04:47:25.713Z,7.74
2023-04-16T04:52:29.564Z,7.69
2023-04-16T04:57:33.909Z,7.68
2023-04-16T05:02:38.534Z,7.65
2023-04-16T05:07:41.440Z,7.56
2023-04-16T05:12:47.187Z,7.51
2023-04-16T05:17:51.608Z,7.46
2023-04-16T05:22:55.386Z,7.54
2023-04-16T05:27:59.513Z,7.45
2023-04-16T05:33:02.277Z,7.40
2023-04-16T05:38:05.380Z,7.40
2023-04-16T05:43:09.520Z,7.48
2023-04-16T05:48:12.443Z,7.42
2023-04-16T05:53:15.317Z,7.32
2023-04-16T05:58:19.454Z,7.34
2023-04-16T06:03:22.271Z,7.45
2023-04-16T06:08:25.104Z,7.47
2023-04-16T06:13:29.168Z,7.56
2023-04-16T06:18:31.902Z,7.35
2023-04-16T06:23:34.609Z,7.40
2023-04-16T06:28:38.785Z,7.48
2023-04-16T06:33:41.540Z,7.53
2023-04-16T06:38:44.470Z,7.64
2023-04-16T06:43:48.628Z,7.60
2023-04-16T06:48:51.626Z,7.79
2023-04-16T06:53:54.393Z,7.77
2023-04-16T06:59:00.840Z,7.70
2023-04-16T07:04:04.423Z,7.53
2023-04-16T07:09:07.575Z,7.65
2023-04-16T07:14:11.846Z,7.87
2023-04-16T07:19:14.594Z,7.88
2023-04-16T07:24:17.387Z,8.04
2023-04-16T07:29:21.535Z,8.21
2023-04-16T07:34:24.379Z,8.21
2023-04-16T07:39:27.160Z,8.15
2023-04-16T07:44:31.313Z,8.40
2023-04-16T07:49:34.054Z,8.43
2023-04-16T07:54:36.789Z,8.99
2023-04-16T07:59:41.083Z,8.89
2023-04-16T08:04:44.113Z,9.05
2023-04-16T08:09:50.588Z,8.91
2023-04-16T08:14:54.688Z,8.84
2023-04-16T08:19:57.425Z,8.78
2023-04-16T08:25:00.573Z,8.87
2023-04-16T08:30:05.517Z,9.17
2023-04-16T08:35:08.842Z,9.25
2023-04-16T08:40:12.277Z,9.24
2023-04-16T08:45:18.568Z,9.51
2023-04-16T08:50:24.605Z,9.59
2023-04-16T08:55:31.035Z,9.79
2023-04-16T09:00:36.131Z,9.77
2023-04-16T09:05:38.953Z,10.17
2023-04-16T09:10:41.774Z,9.78
2023-04-16T09:15:46.025Z,9.72
2023-04-16T09:20:48.971Z,9.90
2023-04-16T09:25:51.729Z,9.87
2023-04-16T09:31:11.417Z,9.58
2023-04-16T09:36:14.176Z,9.38
2023-04-16T09:41:17.690Z,9.54
2023-04-16T09:46:21.980Z,9.73
2023-04-16T09:51:26.582Z,9.53
2023-04-16T09:56:30.363Z,9.50
2023-04-16T10:01:34.535Z,9.71
2023-04-16T10:06:37.284Z,9.82
2023-04-16T10:11:40.617Z,9.79
2023-04-16T10:16:44.758Z,9.82
2023-04-16T10:21:47.538Z,9.97
2023-04-16T10:26:52.639Z,9.92
2023-04-16T10:31:57.379Z,10.00
2023-04-16T10:37:00.229Z,10.00
2023-04-16T10:42:11.166Z,9.87
2023-04-16T10:47:15.633Z,9.61
2023-04-16T10:52:18.515Z,9.78
2023-04-16T10:57:21.484Z,9.80
2023-04-16T11:02:30.135Z,9.89
2023-04-16T11:07:34.857Z,9.61
2023-04-16T11:12:38.712Z,9.73
2023-04-16T11:17:44.567Z,9.91
2023-04-16T11:22:47.735Z,10.35
2023-04-16T11:27:50.758Z,10.41
2023-04-16T11:32:54.973Z,10.27
2023-04-16T11:37:58.396Z,10.49
2023-04-16T11:43:03.360Z,10.58
2023-04-16T11:48:09.846Z,10.60
2023-04-16T11:53:15.949Z,10.28
2023-04-16T11:58:19.140Z,10.54
2023-04-16T12:03:46.118Z,10.70
2023-04-16T12:08:49.342Z,10.37
2023-04-16T12:14:09.737Z,10.71
2023-04-16T12:19:14.416Z,10.65
2023-04-16T12:24:20.618Z,10.52
2023-04-16T12:29:24.767Z,10.74
2023-04-16T12:34:48.500Z,10.38
2023-04-16T12:39:51.686Z,10.57
2023-04-16T12:44:54.384Z,10.85
2023-04-16T12:49:58.894Z,10.73
2023-04-16T12:55:02.729Z,10.99
2023-04-16T13:00:07.926Z,10.94
2023-04-16T13:05:13.073Z,10.89
2023-04-16T13:10:16.710Z,10.76
2023-04-16T13:15:19.552Z,10.65
2023-04-16T13:20:24.628Z,10.95
2023-04-16T13:25:27.414Z,10.99
2023-04-16T13:30:30.458Z,10.67
2023-04-16T13:35:34.637Z,10.97
2023-04-16T13:40:37.369Z,10.59
2023-04-16T13:45:40.273Z,10.71
2023-04-16T13:50:44.397Z,10.74
2023-04-16T13:55:48.250Z,10.87
2023-04-16T14:00:51.063Z,11.02
2023-04-16T14:05:55.254Z,10.94
2023-04-16T14:10:58.666Z,10.96
2023-04-16T14:16:01.510Z,11.10
2023-04-16T14:21:05.820Z,11.24
2023-04-16T14:26:08.523Z,11.22
2023-04-16T14:31:11.424Z,11.38
2023-04-16T14:36:15.644Z,11.39
2023-04-16T14:41:18.408Z,11.58
2023-04-16T14:46:21.212Z,11.23
2023-04-16T14:51:26.383Z,11.48
2023-04-16T14:56:29.486Z,11.29
2023-04-16T15:01:32.477Z,11.61
2023-04-16T15:06:36.610Z,11.51
2023-04-16T15:11:39.654Z,11.29
2023-04-16T15:16:42.426Z,11.54
2023-04-16T15:21:48.645Z,11.26
2023-04-16T15:26:51.443Z,11.46
2023-04-16T15:31:54.285Z,11.38
2023-04-16T15:36:58.384Z,11.49
2023-04-16T15:42:03.526Z,11.36
2023-04-16T15:47:08.498Z,11.34
2023-04-16T15:52:12.997Z,11.48
2023-04-16T15:57:15.692Z,11.31
2023-04-16T16:02:18.593Z,11.49
2023-04-16T16:07:25.074Z,11.48
2023-04-16T16:12:27.977Z,11.55
2023-04-16T16:17:31.036Z,11.49
2023-04-16T16:22:35.228Z,11.48
2023-04-16T16:27:38.042Z,11.49
2023-04-16T16:32:41.171Z,11.35
2023-04-16T16:37:45.592Z,11.34
2023-04-16T16:42:48.350Z,11.37
2023-04-16T16:47:51.425Z,11.30
2023-04-16T16:52:55.582Z,11.24
2023-04-16T16:57:58.443Z,11.26
2023-04-16T17:03:01.432Z,11.28
2023-04-16T17:08:06.567Z,11.33
2023-04-16T17:13:09.351Z,11.27
2023-04-16T17:18:12.103Z,11.30
2023-04-16T17:23:16.240Z,11.33
2023-04-16T17:28:19.106Z,11.30
2023-04-16T17:33:21.850Z,11.27
2023-04-16T17:38:26.113Z,11.18
2023-04-16T17:43:29.199Z,11.05
2023-04-16T17:48:31.954Z,11.03
2023-04-16T17:53:36.070Z,11.00
2023-04-16T17:58:38.871Z,10.85
2023-04-16T18:03:42.020Z,10.86
2023-04-16T18:08:46.289Z,10.84
2023-04-16T18:13:49.581Z,10.72
2023-04-16T18:18:52.308Z,10.72
2023-04-16T18:23:56.411Z,10.63
2023-04-16T18:28:59.728Z,10.58
2023-04-16T18:34:02.993Z,10.58
2023-04-16T18:39:08.135Z,10.52
2023-04-16T18:44:10.924Z,10.45
2023-04-16T18:49:13.800Z,10.40
2023-04-16T18:54:19.881Z,10.44
2023-04-16T18:59:22.635Z,10.40
2023-04-16T19:04:25.686Z,10.41
2023-04-16T19:09:29.883Z,10.41
2023-04-16T19:14:32.655Z,10.37
2023-04-16T19:19:35.539Z,10.31
2023-04-16T19:24:39.710Z,10.26
2023-04-16T19:29:43.464Z,10.25
2023-04-16T19:34:47.131Z,10.22
2023-04-16T19:39:51.301Z,10.21
2023-04-16T19:44:54.197Z,10.19
2023-04-16T19:49:56.961Z,10.22
2023-04-16T19:55:01.434Z,10.21
2023-04-16T20:00:05.625Z,10.19
2023-04-16T20:05:09.318Z,10.07
2023-04-16T20:10:13.407Z,10.14
2023-04-16T20:15:16.548Z,10.11
2023-04-16T20:20:19.510Z,10.11
2023-04-16T20:25:26.103Z,10.07
2023-04-16T20:30:30.910Z,10.03
2023-04-16T20:35:33.697Z,10.06
2023-04-16T20:40:38.016Z,10.10
2023-04-16T20:45:41.040Z,10.10
2023-04-16T20:50:43.811Z,10.12
2023-04-16T20:55:47.909Z,10.09
2023-04-16T21:00:51.236Z,10.02
2023-04-16T21:05:55.553Z,9.96
2023-04-16T21:10:59.714Z,9.96
2023-04-16T21:16:02.500Z,9.92
2023-04-16T21:21:05.448Z,10.00
2023-04-16T21:26:09.566Z,9.94
2023-04-16T21:31:12.363Z,9.94
2023-04-16T21:36:15.426Z,9.97
2023-04-16T21:41:19.577Z,9.96
2023-04-16T21:46:22.570Z,9.89
2023-04-16T21:51:29.729Z,9.92
2023-04-16T21:56:33.907Z,9.89
2023-04-16T22:01:36.675Z,9.85
2023-04-16T22:06:39.833Z,9.88
2023-04-16T22:11:46.491Z,9.85
2023-04-16T22:16:51.732Z,9.83
2023-04-16T22:21:54.787Z,9.79
2023-04-16T22:26:58.871Z,9.78
2023-04-16T22:32:02.009Z,9.78
2023-04-16T22:37:04.848Z,9.74
2023-04-16T22:42:08.970Z,9.70
2023-04-16T22:47:11.723Z,9.75
2023-04-16T22:52:14.491Z,9.70
2023-04-16T22:57:21.050Z,9.57
2023-04-16T23:02:23.905Z,9.49
2023-04-16T23:07:26.632Z,9.57
2023-04-16T23:12:30.938Z,9.46
2023-04-16T23:17:34.946Z,9.41
2023-04-16T23:22:37.893Z,9.38
2023-04-16T23:27:41.990Z,9.29
2023-04-16T23:32:44.747Z,9.27
2023-04-16T23:37:47.516Z,9.31
2023-04-16T23:42:51.590Z,9.17
2023-04-16T23:47:54.363Z,9.20
2023-04-16T23:52:57.116Z,9.08
2023-04-16T23:58:01.188Z,9.17
